sensor_id;sensor_type;location;lat;lon;timestamp;P1;durP1;ratioP1;P2;durP2;ratioP2
12848;SDS011;6493;50.928;7.172;2023-09-19T00:02:57;0.43;;;0.43;;
12848;SDS011;6493;50.928;7.172;2023-09-19T00:08:02;0.50;;;0.37;;
12848;SDS011;6493;50.928;7.172;2023-09-19T00:13:07;0.50;;;0.40;;
12848;SDS011;6493;50.928;7.172;2023-09-19T00:18:16;0.40;;;0.40;;
12848;SDS011;6493;50.928;7.172;2023-09-19T00:23:22;0.40;;;0.40;;
12848;SDS011;6493;50.928;7.172;2023-09-19T00:28:28;1.17;;;0.77;;
12848;SDS011;6493;50.928;7.172;2023-09-19T00:33:33;0.60;;;0.60;;
12848;SDS011;6493;50.928;7.172;2023-09-19T00:38:38;0.60;;;0.50;;
12848;SDS011;6493;50.928;7.172;2023-09-19T00:43:43;0.67;;;0.50;;
12848;SDS011;6493;50.928;7.172;2023-09-19T00:48:47;0.47;;;0.40;;
12848;SDS011;6493;50.928;7.172;2023-09-19T00:53:51;1.20;;;0.60;;
12848;SDS011;6493;50.928;7.172;2023-09-19T00:58:56;0.60;;;0.60;;
12848;SDS011;6493;50.928;7.172;2023-09-19T01:04:01;0.50;;;0.50;;
12848;SDS011;6493;50.928;7.172;2023-09-19T01:09:06;1.43;;;0.50;;
12848;SDS011;6493;50.928;7.172;2023-09-19T01:14:15;0.70;;;0.50;;
12848;SDS011;6493;50.928;7.172;2023-09-19T01:19:46;0.43;;;0.40;;
12848;SDS011;6493;50.928;7.172;2023-09-19T01:30:51;0.73;;;0.50;;
12848;SDS011;6493;50.928;7.172;2023-09-19T01:36:02;1.43;;;0.50;;
12848;SDS011;6493;50.928;7.172;2023-09-19T01:41:09;0.80;;;0.50;;
12848;SDS011;6493;50.928;7.172;2023-09-19T01:46:18;0.37;;;0.37;;
12848;SDS011;6493;50.928;7.172;2023-09-19T01:51:33;1.20;;;0.60;;
12848;SDS011;6493;50.928;7.172;2023-09-19T01:56:42;1.07;;;0.60;;
12848;SDS011;6493;50.928;7.172;2023-09-19T02:01:52;1.70;;;0.77;;
12848;SDS011;6493;50.928;7.172;2023-09-19T02:06:58;0.90;;;0.50;;
12848;SDS011;6493;50.928;7.172;2023-09-19T02:12:03;1.17;;;0.50;;
12848;SDS011;6493;50.928;7.172;2023-09-19T02:17:08;5.07;;;0.60;;
12848;SDS011;6493;50.928;7.172;2023-09-19T02:22:13;1.93;;;0.70;;
12848;SDS011;6493;50.928;7.172;2023-09-19T02:27:18;0.70;;;0.57;;
12848;SDS011;6493;50.928;7.172;2023-09-19T02:32:23;0.90;;;0.40;;
12848;SDS011;6493;50.928;7.172;2023-09-19T02:37:27;2.53;;;0.67;;
12848;SDS011;6493;50.928;7.172;2023-09-19T02:42:30;0.93;;;0.60;;
12848;SDS011;6493;50.928;7.172;2023-09-19T02:47:35;2.33;;;0.70;;
12848;SDS011;6493;50.928;7.172;2023-09-19T02:52:40;0.63;;;0.50;;
12848;SDS011;6493;50.928;7.172;2023-09-19T02:57:46;2.27;;;0.93;;
12848;SDS011;6493;50.928;7.172;2023-09-19T03:02:53;0.70;;;0.50;;
12848;SDS011;6493;50.928;7.172;2023-09-19T03:07:57;0.60;;;0.60;;
12848;SDS011;6493;50.928;7.172;2023-09-19T03:13:03;1.07;;;0.60;;
12848;SDS011;6493;50.928;7.172;2023-09-19T03:18:09;1.50;;;0.83;;
12848;SDS011;6493;50.928;7.172;2023-09-19T03:23:14;1.87;;;0.83;;
12848;SDS011;6493;50.928;7.172;2023-09-19T03:28:19;1.43;;;0.80;;
12848;SDS011;6493;50.928;7.172;2023-09-19T03:33:25;2.57;;;0.70;;
12848;SDS011;6493;50.928;7.172;2023-09-19T03:38:29;1.00;;;0.60;;
12848;SDS011;6493;50.928;7.172;2023-09-19T03:43:33;1.73;;;0.70;;
12848;SDS011;6493;50.928;7.172;2023-09-19T03:48:39;1.17;;;0.50;;
12848;SDS011;6493;50.928;7.172;2023-09-19T03:53:44;1.00;;;0.67;;
12848;SDS011;6493;50.928;7.172;2023-09-19T03:58:48;1.00;;;0.80;;
12848;SDS011;6493;50.928;7.172;2023-09-19T04:03:54;1.00;;;0.30;;
12848;SDS011;6493;50.928;7.172;2023-09-19T04:08:58;1.13;;;0.60;;
12848;SDS011;6493;50.928;7.172;2023-09-19T04:14:02;0.83;;;0.60;;
12848;SDS011;6493;50.928;7.172;2023-09-19T04:19:08;1.17;;;0.70;;
12848;SDS011;6493;50.928;7.172;2023-09-19T04:24:12;1.13;;;0.70;;
12848;SDS011;6493;50.928;7.172;2023-09-19T04:29:16;1.00;;;0.60;;
12848;SDS011;6493;50.928;7.172;2023-09-19T04:34:22;1.20;;;0.80;;
12848;SDS011;6493;50.928;7.172;2023-09-19T04:39:26;0.80;;;0.60;;
12848;SDS011;6493;50.928;7.172;2023-09-19T04:44:30;1.23;;;0.60;;
12848;SDS011;6493;50.928;7.172;2023-09-19T04:49:35;0.77;;;0.60;;
12848;SDS011;6493;50.928;7.172;2023-09-19T04:54:39;0.63;;;0.50;;
12848;SDS011;6493;50.928;7.172;2023-09-19T04:59:43;3.20;;;0.60;;
12848;SDS011;6493;50.928;7.172;2023-09-19T05:04:48;1.17;;;0.60;;
12848;SDS011;6493;50.928;7.172;2023-09-19T05:09:52;0.43;;;0.40;;
12848;SDS011;6493;50.928;7.172;2023-09-19T05:14:55;0.77;;;0.40;;
12848;SDS011;6493;50.928;7.172;2023-09-19T05:20:00;1.90;;;0.80;;
12848;SDS011;6493;50.928;7.172;2023-09-19T05:25:16;0.73;;;0.50;;
12848;SDS011;6493;50.928;7.172;2023-09-19T05:30:20;1.60;;;0.47;;
12848;SDS011;6493;50.928;7.172;2023-09-19T05:35:25;1.23;;;0.60;;
12848;SDS011;6493;50.928;7.172;2023-09-19T05:40:29;0.50;;;0.50;;
12848;SDS011;6493;50.928;7.172;2023-09-19T05:45:32;1.70;;;0.63;;
12848;SDS011;6493;50.928;7.172;2023-09-19T05:50:38;2.13;;;0.60;;
12848;SDS011;6493;50.928;7.172;2023-09-19T05:55:41;2.40;;;1.07;;
12848;SDS011;6493;50.928;7.172;2023-09-19T06:00:45;0.73;;;0.60;;
12848;SDS011;6493;50.928;7.172;2023-09-19T06:05:52;1.27;;;0.57;;
12848;SDS011;6493;50.928;7.172;2023-09-19T06:10:59;1.27;;;0.63;;
12848;SDS011;6493;50.928;7.172;2023-09-19T06:16:03;0.70;;;0.60;;
12848;SDS011;6493;50.928;7.172;2023-09-19T06:21:08;2.77;;;0.77;;
12848;SDS011;6493;50.928;7.172;2023-09-19T06:26:12;1.23;;;0.90;;
12848;SDS011;6493;50.928;7.172;2023-09-19T06:31:15;1.73;;;0.87;;
12848;SDS011;6493;50.928;7.172;2023-09-19T06:36:21;1.63;;;0.77;;
12848;SDS011;6493;50.928;7.172;2023-09-19T06:41:25;1.60;;;0.60;;
12848;SDS011;6493;50.928;7.172;2023-09-19T06:46:28;2.33;;;0.97;;
12848;SDS011;6493;50.928;7.172;2023-09-19T06:51:36;2.70;;;0.80;;
12848;SDS011;6493;50.928;7.172;2023-09-19T06:56:40;2.13;;;0.87;;
12848;SDS011;6493;50.928;7.172;2023-09-19T07:01:44;1.07;;;0.60;;
12848;SDS011;6493;50.928;7.172;2023-09-19T07:06:50;2.13;;;0.60;;
12848;SDS011;6493;50.928;7.172;2023-09-19T07:11:54;1.30;;;0.70;;
12848;SDS011;6493;50.928;7.172;2023-09-19T07:16:58;1.27;;;0.70;;
12848;SDS011;6493;50.928;7.172;2023-09-19T07:22:05;2.43;;;1.00;;
12848;SDS011;6493;50.928;7.172;2023-09-19T07:27:09;1.87;;;1.07;;
12848;SDS011;6493;50.928;7.172;2023-09-19T07:32:13;1.83;;;0.90;;
12848;SDS011;6493;50.928;7.172;2023-09-19T07:37:20;1.83;;;0.90;;
12848;SDS011;6493;50.928;7.172;2023-09-19T07:42:24;3.73;;;1.07;;
12848;SDS011;6493;50.928;7.172;2023-09-19T07:47:27;1.70;;;0.87;;
12848;SDS011;6493;50.928;7.172;2023-09-19T07:52:33;1.43;;;0.90;;
12848;SDS011;6493;50.928;7.172;2023-09-19T07:57:37;3.37;;;1.23;;
12848;SDS011;6493;50.928;7.172;2023-09-19T08:02:43;1.93;;;1.07;;
12848;SDS011;6493;50.928;7.172;2023-09-19T08:07:53;2.33;;;1.10;;
12848;SDS011;6493;50.928;7.172;2023-09-19T08:12:58;1.30;;;0.93;;
12848;SDS011;6493;50.928;7.172;2023-09-19T08:18:04;1.57;;;1.00;;
12848;SDS011;6493;50.928;7.172;2023-09-19T08:23:09;1.60;;;1.13;;
12848;SDS011;6493;50.928;7.172;2023-09-19T08:28:13;2.97;;;1.10;;
12848;SDS011;6493;50.928;7.172;2023-09-19T08:33:20;2.17;;;0.83;;
12848;SDS011;6493;50.928;7.172;2023-09-19T08:38:25;2.57;;;1.20;;
12848;SDS011;6493;50.928;7.172;2023-09-19T08:43:31;2.07;;;1.30;;
12848;SDS011;6493;50.928;7.172;2023-09-19T08:48:36;2.90;;;1.30;;
12848;SDS011;6493;50.928;7.172;2023-09-19T08:53:50;2.53;;;1.03;;
12848;SDS011;6493;50.928;7.172;2023-09-19T08:58:59;2.93;;;1.20;;
12848;SDS011;6493;50.928;7.172;2023-09-19T09:04:05;3.83;;;1.33;;
12848;SDS011;6493;50.928;7.172;2023-09-19T09:09:16;2.93;;;1.50;;
12848;SDS011;6493;50.928;7.172;2023-09-19T09:14:20;5.40;;;1.40;;
12848;SDS011;6493;50.928;7.172;2023-09-19T09:19:25;3.27;;;1.33;;
12848;SDS011;6493;50.928;7.172;2023-09-19T09:24:30;2.43;;;1.23;;
12848;SDS011;6493;50.928;7.172;2023-09-19T09:29:42;3.00;;;1.10;;
12848;SDS011;6493;50.928;7.172;2023-09-19T09:34:50;1.33;;;0.80;;
12848;SDS011;6493;50.928;7.172;2023-09-19T09:39:57;2.37;;;1.50;;
12848;SDS011;6493;50.928;7.172;2023-09-19T09:45:21;1.83;;;1.13;;
12848;SDS011;6493;50.928;7.172;2023-09-19T09:50:31;2.20;;;1.07;;
12848;SDS011;6493;50.928;7.172;2023-09-19T09:56:00;2.70;;;1.07;;
12848;SDS011;6493;50.928;7.172;2023-09-19T10:01:08;1.83;;;1.30;;
12848;SDS011;6493;50.928;7.172;2023-09-19T10:06:12;2.80;;;1.10;;
12848;SDS011;6493;50.928;7.172;2023-09-19T10:11:31;2.87;;;1.10;;
12848;SDS011;6493;50.928;7.172;2023-09-19T10:16:35;0.80;;;0.70;;
12848;SDS011;6493;50.928;7.172;2023-09-19T10:21:42;1.40;;;1.03;;
12848;SDS011;6493;50.928;7.172;2023-09-19T10:26:49;3.40;;;1.30;;
12848;SDS011;6493;50.928;7.172;2023-09-19T10:31:53;1.83;;;1.00;;
12848;SDS011;6493;50.928;7.172;2023-09-19T10:37:00;2.03;;;0.90;;
12848;SDS011;6493;50.928;7.172;2023-09-19T10:42:09;2.30;;;1.00;;
12848;SDS011;6493;50.928;7.172;2023-09-19T10:47:19;1.80;;;1.20;;
12848;SDS011;6493;50.928;7.172;2023-09-19T10:52:26;1.63;;;1.00;;
12848;SDS011;6493;50.928;7.172;2023-09-19T10:57:32;4.10;;;1.43;;
12848;SDS011;6493;50.928;7.172;2023-09-19T11:02:36;2.53;;;1.10;;
12848;SDS011;6493;50.928;7.172;2023-09-19T11:13:26;2.80;;;1.33;;
12848;SDS011;6493;50.928;7.172;2023-09-19T11:18:52;2.10;;;1.20;;
12848;SDS011;6493;50.928;7.172;2023-09-19T11:29:39;0.97;;;0.80;;
12848;SDS011;6493;50.928;7.172;2023-09-19T11:34:44;1.47;;;0.70;;
12848;SDS011;6493;50.928;7.172;2023-09-19T11:40:05;1.17;;;1.03;;
12848;SDS011;6493;50.928;7.172;2023-09-19T11:51:01;3.33;;;0.90;;
12848;SDS011;6493;50.928;7.172;2023-09-19T11:56:17;2.13;;;1.00;;
12848;SDS011;6493;50.928;7.172;2023-09-19T12:01:23;1.87;;;0.90;;
12848;SDS011;6493;50.928;7.172;2023-09-19T12:06:32;1.60;;;1.27;;
12848;SDS011;6493;50.928;7.172;2023-09-19T12:11:40;2.13;;;1.10;;
12848;SDS011;6493;50.928;7.172;2023-09-19T12:16:50;2.03;;;1.00;;
12848;SDS011;6493;50.928;7.172;2023-09-19T12:21:59;2.60;;;1.50;;
12848;SDS011;6493;50.928;7.172;2023-09-19T12:27:06;2.10;;;1.40;;
12848;SDS011;6493;50.928;7.172;2023-09-19T12:32:11;2.27;;;1.03;;
12848;SDS011;6493;50.928;7.172;2023-09-19T12:37:21;1.40;;;0.97;;
12848;SDS011;6493;50.928;7.172;2023-09-19T12:42:25;2.10;;;0.80;;
12848;SDS011;6493;50.928;7.172;2023-09-19T12:47:31;2.00;;;1.17;;
12848;SDS011;6493;50.928;7.172;2023-09-19T12:52:38;3.40;;;1.20;;
12848;SDS011;6493;50.928;7.172;2023-09-19T12:57:43;2.23;;;1.10;;
12848;SDS011;6493;50.928;7.172;2023-09-19T13:08:20;1.83;;;1.30;;
12848;SDS011;6493;50.928;7.172;2023-09-19T13:13:25;2.20;;;1.13;;
12848;SDS011;6493;50.928;7.172;2023-09-19T13:18:30;2.10;;;1.07;;
12848;SDS011;6493;50.928;7.172;2023-09-19T13:23:36;2.47;;;1.27;;
12848;SDS011;6493;50.928;7.172;2023-09-19T13:28:40;1.50;;;0.87;;
12848;SDS011;6493;50.928;7.172;2023-09-19T13:33:46;2.37;;;1.17;;
12848;SDS011;6493;50.928;7.172;2023-09-19T13:38:53;1.87;;;1.17;;
12848;SDS011;6493;50.928;7.172;2023-09-19T13:43:57;1.27;;;1.00;;
12848;SDS011;6493;50.928;7.172;2023-09-19T13:49:01;2.83;;;1.07;;
12848;SDS011;6493;50.928;7.172;2023-09-19T13:54:07;1.57;;;0.90;;
12848;SDS011;6493;50.928;7.172;2023-09-19T13:59:10;1.13;;;0.90;;
12848;SDS011;6493;50.928;7.172;2023-09-19T14:04:14;1.83;;;1.10;;
12848;SDS011;6493;50.928;7.172;2023-09-19T14:09:20;1.70;;;0.70;;
12848;SDS011;6493;50.928;7.172;2023-09-19T14:14:25;1.10;;;0.70;;
12848;SDS011;6493;50.928;7.172;2023-09-19T14:19:29;1.00;;;0.60;;
12848;SDS011;6493;50.928;7.172;2023-09-19T14:24:34;1.80;;;0.80;;
12848;SDS011;6493;50.928;7.172;2023-09-19T14:29:38;0.80;;;0.80;;
12848;SDS011;6493;50.928;7.172;2023-09-19T14:34:43;1.37;;;0.77;;
12848;SDS011;6493;50.928;7.172;2023-09-19T14:39:49;0.70;;;0.60;;
12848;SDS011;6493;50.928;7.172;2023-09-19T14:44:53;1.50;;;0.60;;
12848;SDS011;6493;50.928;7.172;2023-09-19T14:49:57;1.63;;;0.53;;
12848;SDS011;6493;50.928;7.172;2023-09-19T14:55:03;0.60;;;0.60;;
12848;SDS011;6493;50.928;7.172;2023-09-19T15:00:08;0.87;;;0.70;;
12848;SDS011;6493;50.928;7.172;2023-09-19T15:05:14;1.07;;;0.70;;
12848;SDS011;6493;50.928;7.172;2023-09-19T15:10:23;3.53;;;0.80;;
12848;SDS011;6493;50.928;7.172;2023-09-19T15:15:27;0.80;;;0.60;;
12848;SDS011;6493;50.928;7.172;2023-09-19T15:20:30;0.47;;;0.40;;
12848;SDS011;6493;50.928;7.172;2023-09-19T15:25:35;1.17;;;0.60;;
12848;SDS011;6493;50.928;7.172;2023-09-19T15:35:51;0.60;;;0.53;;
12848;SDS011;6493;50.928;7.172;2023-09-19T15:40:56;0.80;;;0.50;;
12848;SDS011;6493;50.928;7.172;2023-09-19T15:46:00;0.60;;;0.60;;
12848;SDS011;6493;50.928;7.172;2023-09-19T15:51:04;0.40;;;0.40;;
12848;SDS011;6493;50.928;7.172;2023-09-19T15:56:09;1.37;;;0.57;;
12848;SDS011;6493;50.928;7.172;2023-09-19T16:01:13;0.90;;;0.50;;
12848;SDS011;6493;50.928;7.172;2023-09-19T16:06:19;0.53;;;0.50;;
12848;SDS011;6493;50.928;7.172;2023-09-19T16:11:27;1.27;;;0.77;;
12848;SDS011;6493;50.928;7.172;2023-09-19T16:16:31;0.90;;;0.60;;
12848;SDS011;6493;50.928;7.172;2023-09-19T16:21:37;0.50;;;0.50;;
12848;SDS011;6493;50.928;7.172;2023-09-19T16:26:46;0.53;;;0.53;;
12848;SDS011;6493;50.928;7.172;2023-09-19T16:31:51;1.20;;;0.60;;
12848;SDS011;6493;50.928;7.172;2023-09-19T16:36:55;1.20;;;0.57;;
12848;SDS011;6493;50.928;7.172;2023-09-19T16:42:00;1.50;;;0.73;;
12848;SDS011;6493;50.928;7.172;2023-09-19T16:47:20;1.40;;;0.60;;
12848;SDS011;6493;50.928;7.172;2023-09-19T16:52:24;0.90;;;0.60;;
12848;SDS011;6493;50.928;7.172;2023-09-19T16:57:29;1.30;;;1.00;;
12848;SDS011;6493;50.928;7.172;2023-09-19T17:02:34;1.30;;;0.80;;
12848;SDS011;6493;50.928;7.172;2023-09-19T17:07:39;0.67;;;0.57;;
12848;SDS011;6493;50.928;7.172;2023-09-19T17:12:44;0.50;;;0.50;;
12848;SDS011;6493;50.928;7.172;2023-09-19T17:17:48;0.70;;;0.60;;
12848;SDS011;6493;50.928;7.172;2023-09-19T17:22:51;0.70;;;0.40;;
12848;SDS011;6493;50.928;7.172;2023-09-19T17:27:56;0.73;;;0.50;;
12848;SDS011;6493;50.928;7.172;2023-09-19T17:33:00;0.70;;;0.53;;
12848;SDS011;6493;50.928;7.172;2023-09-19T17:38:06;0.73;;;0.40;;
12848;SDS011;6493;50.928;7.172;2023-09-19T17:43:11;0.80;;;0.70;;
12848;SDS011;6493;50.928;7.172;2023-09-19T17:48:15;1.93;;;0.70;;
12848;SDS011;6493;50.928;7.172;2023-09-19T17:53:18;0.50;;;0.50;;
12848;SDS011;6493;50.928;7.172;2023-09-19T17:58:24;1.07;;;0.60;;
12848;SDS011;6493;50.928;7.172;2023-09-19T18:03:28;0.83;;;0.50;;
12848;SDS011;6493;50.928;7.172;2023-09-19T18:08:33;0.83;;;0.40;;
12848;SDS011;6493;50.928;7.172;2023-09-19T18:13:39;2.60;;;0.80;;
12848;SDS011;6493;50.928;7.172;2023-09-19T18:18:44;0.57;;;0.50;;
12848;SDS011;6493;50.928;7.172;2023-09-19T18:23:51;1.40;;;0.57;;
12848;SDS011;6493;50.928;7.172;2023-09-19T18:28:56;0.60;;;0.53;;
12848;SDS011;6493;50.928;7.172;2023-09-19T18:34:00;0.73;;;0.50;;
12848;SDS011;6493;50.928;7.172;2023-09-19T18:39:04;0.87;;;0.70;;
12848;SDS011;6493;50.928;7.172;2023-09-19T18:44:11;0.77;;;0.70;;
12848;SDS011;6493;50.928;7.172;2023-09-19T18:49:15;0.80;;;0.60;;
12848;SDS011;6493;50.928;7.172;2023-09-19T18:54:19;1.10;;;0.60;;
12848;SDS011;6493;50.928;7.172;2023-09-19T18:59:24;0.83;;;0.60;;
12848;SDS011;6493;50.928;7.172;2023-09-19T19:04:28;0.60;;;0.60;;
12848;SDS011;6493;50.928;7.172;2023-09-19T19:09:32;1.07;;;0.60;;
12848;SDS011;6493;50.928;7.172;2023-09-19T19:14:37;0.67;;;0.50;;
12848;SDS011;6493;50.928;7.172;2023-09-19T19:19:41;1.93;;;0.70;;
12848;SDS011;6493;50.928;7.172;2023-09-19T19:24:45;0.93;;;0.57;;
12848;SDS011;6493;50.928;7.172;2023-09-19T19:29:50;0.50;;;0.40;;
12848;SDS011;6493;50.928;7.172;2023-09-19T19:34:53;0.80;;;0.60;;
12848;SDS011;6493;50.928;7.172;2023-09-19T19:39:57;0.87;;;0.60;;
12848;SDS011;6493;50.928;7.172;2023-09-19T19:45:03;2.50;;;0.90;;
12848;SDS011;6493;50.928;7.172;2023-09-19T19:50:07;1.10;;;0.80;;
12848;SDS011;6493;50.928;7.172;2023-09-19T19:55:12;1.17;;;0.80;;
12848;SDS011;6493;50.928;7.172;2023-09-19T20:00:18;1.40;;;0.77;;
12848;SDS011;6493;50.928;7.172;2023-09-19T20:05:22;0.60;;;0.60;;
12848;SDS011;6493;50.928;7.172;2023-09-19T20:10:26;1.00;;;0.77;;
12848;SDS011;6493;50.928;7.172;2023-09-19T20:15:31;1.57;;;0.80;;
12848;SDS011;6493;50.928;7.172;2023-09-19T20:20:36;1.37;;;0.90;;
12848;SDS011;6493;50.928;7.172;2023-09-19T20:25:40;1.40;;;0.70;;
12848;SDS011;6493;50.928;7.172;2023-09-19T20:30:47;0.60;;;0.50;;
12848;SDS011;6493;50.928;7.172;2023-09-19T20:35:51;0.80;;;0.60;;
12848;SDS011;6493;50.928;7.172;2023-09-19T20:41:01;0.90;;;0.70;;
12848;SDS011;6493;50.928;7.172;2023-09-19T20:46:06;0.80;;;0.50;;
12848;SDS011;6493;50.928;7.172;2023-09-19T20:51:11;0.50;;;0.50;;
12848;SDS011;6493;50.928;7.172;2023-09-19T20:56:16;0.83;;;0.50;;
12848;SDS011;6493;50.928;7.172;2023-09-19T21:01:22;1.37;;;0.53;;
12848;SDS011;6493;50.928;7.172;2023-09-19T21:06:27;0.50;;;0.50;;
12848;SDS011;6493;50.928;7.172;2023-09-19T21:11:31;0.43;;;0.43;;
12848;SDS011;6493;50.928;7.172;2023-09-19T21:16:36;1.03;;;0.70;;
12848;SDS011;6493;50.928;7.172;2023-09-19T21:21:40;0.93;;;0.40;;
12848;SDS011;6493;50.928;7.172;2023-09-19T21:26:43;0.90;;;0.70;;
12848;SDS011;6493;50.928;7.172;2023-09-19T21:31:49;1.00;;;0.60;;
12848;SDS011;6493;50.928;7.172;2023-09-19T21:36:53;1.00;;;0.77;;
12848;SDS011;6493;50.928;7.172;2023-09-19T21:41:56;0.47;;;0.47;;
12848;SDS011;6493;50.928;7.172;2023-09-19T21:47:02;1.10;;;0.70;;
12848;SDS011;6493;50.928;7.172;2023-09-19T21:52:06;0.80;;;0.50;;
12848;SDS011;6493;50.928;7.172;2023-09-19T21:57:09;0.70;;;0.70;;
12848;SDS011;6493;50.928;7.172;2023-09-19T22:02:14;0.90;;;0.70;;
12848;SDS011;6493;50.928;7.172;2023-09-19T22:07:18;1.03;;;0.70;;
12848;SDS011;6493;50.928;7.172;2023-09-19T22:12:23;0.50;;;0.50;;
12848;SDS011;6493;50.928;7.172;2023-09-19T22:17:28;0.70;;;0.50;;
12848;SDS011;6493;50.928;7.172;2023-09-19T22:22:35;0.90;;;0.63;;
12848;SDS011;6493;50.928;7.172;2023-09-19T22:27:40;1.50;;;0.70;;
12848;SDS011;6493;50.928;7.172;2023-09-19T22:32:45;1.23;;;0.67;;
12848;SDS011;6493;50.928;7.172;2023-09-19T22:37:48;1.60;;;0.60;;
12848;SDS011;6493;50.928;7.172;2023-09-19T22:43:09;0.70;;;0.70;;
12848;SDS011;6493;50.928;7.172;2023-09-19T22:48:16;0.60;;;0.50;;
12848;SDS011;6493;50.928;7.172;2023-09-19T22:53:19;0.50;;;0.40;;
12848;SDS011;6493;50.928;7.172;2023-09-19T22:58:23;0.50;;;0.50;;
12848;SDS011;6493;50.928;7.172;2023-09-19T23:03:28;0.77;;;0.50;;
12848;SDS011;6493;50.928;7.172;2023-09-19T23:08:34;0.80;;;0.60;;
12848;SDS011;6493;50.928;7.172;2023-09-19T23:13:39;0.70;;;0.70;;
12848;SDS011;6493;50.928;7.172;2023-09-19T23:18:44;1.37;;;0.80;;
12848;SDS011;6493;50.928;7.172;2023-09-19T23:23:53;0.50;;;0.50;;
12848;SDS011;6493;50.928;7.172;2023-09-19T23:28:57;0.93;;;0.53;;
12848;SDS011;6493;50.928;7.172;2023-09-19T23:34:03;0.50;;;0.50;;
12848;SDS011;6493;50.928;7.172;2023-09-19T23:39:07;0.87;;;0.47;;
12848;SDS011;6493;50.928;7.172;2023-09-19T23:44:15;0.97;;;0.50;;
12848;SDS011;6493;50.928;7.172;2023-09-19T23:49:21;0.80;;;0.80;;
12848;SDS011;6493;50.928;7.172;2023-09-19T23:54:25;0.57;;;0.47;;
12848;SDS011;6493;50.928;7.172;2023-09-19T23:59:29;1.33;;;0.50;;
